createdAt,value
2019-05-14T00:02:21.458Z,37.13
2019-05-14T00:04:51.367Z,37.15
2019-05-14T00:07:22.319Z,37.13
2019-05-14T00:09:52.050Z,37.26
2019-05-14T00:12:23.665Z,37.06
2019-05-14T00:14:52.797Z,37.12
2019-05-14T00:17:22.042Z,37.35
2019-05-14T00:20:05.530Z,37.60
2019-05-14T00:22:22.512Z,37.55
2019-05-14T00:24:52.127Z,37.82
2019-05-14T00:27:21.860Z,37.99
2019-05-14T00:29:51.765Z,37.86
2019-05-14T00:32:21.731Z,37.63
2019-05-14T00:34:51.649Z,37.60
2019-05-14T00:37:21.694Z,38.12
2019-05-14T00:39:52.109Z,38.16
2019-05-14T00:42:21.725Z,37.72
2019-05-14T00:44:56.938Z,38.66
2019-05-14T00:47:21.880Z,38.20
2019-05-14T00:49:51.759Z,38.70
2019-05-14T00:52:22.298Z,39.34
2019-05-14T00:54:52.314Z,39.10
2019-05-14T00:57:21.602Z,39.51
2019-05-14T00:59:52.117Z,40.03
2019-05-14T01:02:21.831Z,39.84
2019-05-14T01:04:51.732Z,40.30
2019-05-14T01:07:21.371Z,40.50
2019-05-14T01:09:55.812Z,40.58
2019-05-14T01:12:28.614Z,40.61
2019-05-14T01:15:10.242Z,40.75
2019-05-14T01:17:36.755Z,40.56
2019-05-14T01:20:07.753Z,40.55
2019-05-14T01:22:42.291Z,40.18
2019-05-14T01:25:12.444Z,41.00
2019-05-14T01:27:45.703Z,40.67
2019-05-14T01:30:16.240Z,41.05
2019-05-14T01:32:45.400Z,41.54
2019-05-14T01:35:17.734Z,41.33
2019-05-14T01:37:47.325Z,42.43
2019-05-14T01:40:16.522Z,42.89
2019-05-14T01:42:45.661Z,43.40
2019-05-14T01:45:27.006Z,43.24
2019-05-14T01:47:46.217Z,42.56
2019-05-14T01:50:15.355Z,42.91
2019-05-14T01:52:44.824Z,42.64
2019-05-14T01:55:14.182Z,42.30
2019-05-14T01:57:43.426Z,42.18
2019-05-14T02:00:13.131Z,42.44
2019-05-14T02:02:42.375Z,42.75
2019-05-14T02:05:12.476Z,42.58
2019-05-14T02:07:42.225Z,42.77
2019-05-14T02:10:12.039Z,42.71
2019-05-14T02:12:42.541Z,42.92
2019-05-14T02:15:12.239Z,43.23
2019-05-14T02:17:41.647Z,43.72
2019-05-14T02:20:12.572Z,43.45
2019-05-14T02:22:41.997Z,44.11
2019-05-14T02:25:11.779Z,44.44
2019-05-14T02:27:41.470Z,45.00
2019-05-14T02:30:10.923Z,44.70
2019-05-14T02:32:40.961Z,45.81
2019-05-14T02:35:10.576Z,45.56
2019-05-14T02:37:40.604Z,46.69
2019-05-14T02:40:10.227Z,46.21
2019-05-14T02:42:40.316Z,46.61
2019-05-14T02:47:52.587Z,46.09
2019-05-14T02:50:21.962Z,45.88
2019-05-14T02:52:51.894Z,46.46
2019-05-14T02:55:21.009Z,46.59
2019-05-14T02:57:50.459Z,46.48
2019-05-14T03:00:20.296Z,46.83
2019-05-14T03:02:53.307Z,47.07
2019-05-14T03:05:22.340Z,47.05
2019-05-14T03:07:51.855Z,47.17
2019-05-14T03:10:20.972Z,47.23
2019-05-14T03:12:50.529Z,47.39
2019-05-14T03:15:20.288Z,47.35
2019-05-14T03:17:49.731Z,47.32
2019-05-14T03:20:19.618Z,47.12
2019-05-14T03:23:03.170Z,47.33
2019-05-14T03:25:22.376Z,47.04
2019-05-14T03:27:51.467Z,46.98
2019-05-14T03:30:22.799Z,47.47
2019-05-14T03:33:02.601Z,47.10
2019-05-14T03:35:40.765Z,47.19
2019-05-14T03:38:00.617Z,47.31
2019-05-14T03:40:29.833Z,47.83
2019-05-14T03:42:59.821Z,47.89
2019-05-14T03:45:30.241Z,48.48
2019-05-14T03:47:59.513Z,48.59
2019-05-14T03:50:29.783Z,48.90
2019-05-14T03:52:59.739Z,49.23
2019-05-14T03:55:41.086Z,48.48
2019-05-14T03:58:10.514Z,48.71
2019-05-14T04:00:50.990Z,48.29
2019-05-14T04:03:20.484Z,48.16
2019-05-14T04:05:50.312Z,48.23
2019-05-14T04:08:23.125Z,48.64
2019-05-14T04:10:54.456Z,49.02
2019-05-14T04:13:24.789Z,49.13
2019-05-14T04:15:55.754Z,49.00
2019-05-14T04:18:28.944Z,48.88
2019-05-14T04:20:59.457Z,48.39
2019-05-14T04:23:29.718Z,49.08
2019-05-14T04:26:00.519Z,49.26
2019-05-14T04:28:31.331Z,50.29
2019-05-14T04:31:00.674Z,50.20
2019-05-14T04:33:30.507Z,50.22
2019-05-14T04:36:00.571Z,50.75
2019-05-14T04:38:32.658Z,50.04
2019-05-14T04:41:05.222Z,50.55
2019-05-14T04:43:35.726Z,51.48
2019-05-14T04:46:19.477Z,50.50
2019-05-14T04:48:51.266Z,50.44
2019-05-14T04:51:21.773Z,50.30
2019-05-14T04:53:51.898Z,50.76
2019-05-14T04:56:22.008Z,50.44
2019-05-14T04:58:54.117Z,50.85
2019-05-14T05:01:23.499Z,50.74
2019-05-14T05:03:52.576Z,50.55
2019-05-14T05:06:21.637Z,50.09
2019-05-14T05:08:51.010Z,49.56
2019-05-14T05:11:21.356Z,49.03
2019-05-14T05:13:50.753Z,49.19
2019-05-14T05:16:20.237Z,49.44
2019-05-14T05:18:49.577Z,49.04
2019-05-14T05:21:19.426Z,49.07
2019-05-14T05:23:49.473Z,49.14
2019-05-14T05:26:18.833Z,48.36
2019-05-14T05:29:02.416Z,48.62
2019-05-14T05:31:19.261Z,48.45
2019-05-14T05:33:49.113Z,48.68
2019-05-14T05:36:18.552Z,48.64
2019-05-14T05:38:48.965Z,49.00
2019-05-14T05:41:19.275Z,48.46
2019-05-14T05:43:48.663Z,48.22
2019-05-14T05:46:19.224Z,48.24
2019-05-14T05:48:48.621Z,48.51
2019-05-14T05:51:18.832Z,48.52
2019-05-14T05:53:48.710Z,48.56
2019-05-14T05:56:18.680Z,48.36
2019-05-14T05:58:49.012Z,48.16
2019-05-14T06:01:19.611Z,47.71
2019-05-14T06:03:49.375Z,48.25
2019-05-14T06:06:19.257Z,48.04
2019-05-14T06:08:49.382Z,47.82
2019-05-14T06:11:19.385Z,47.49
2019-05-14T06:13:49.476Z,47.88
2019-05-14T06:16:18.980Z,47.82
2019-05-14T06:18:48.923Z,48.32
2019-05-14T06:21:19.163Z,48.22
2019-05-14T06:23:49.677Z,47.85
2019-05-14T06:26:19.462Z,47.72
2019-05-14T06:28:51.066Z,47.75
2019-05-14T06:31:20.894Z,47.30
2019-05-14T06:33:50.048Z,47.38
2019-05-14T06:36:19.783Z,46.92
2019-05-14T06:38:49.918Z,46.58
2019-05-14T06:41:19.570Z,46.68
2019-05-14T06:43:48.982Z,46.40
2019-05-14T06:46:19.712Z,46.30
2019-05-14T06:48:48.963Z,46.58
2019-05-14T06:51:19.857Z,45.42
2019-05-14T06:53:49.893Z,45.89
2019-05-14T06:56:21.874Z,46.25
2019-05-14T06:58:50.189Z,46.86
2019-05-14T07:01:19.681Z,47.52
2019-05-14T07:03:49.251Z,46.82
2019-05-14T07:06:20.017Z,45.06
2019-05-14T07:08:52.686Z,43.86
2019-05-14T07:11:20.787Z,44.25
2019-05-14T07:13:50.166Z,43.78
2019-05-14T07:16:20.573Z,43.50
2019-05-14T07:18:53.870Z,43.11
2019-05-14T07:21:20.658Z,42.82
2019-05-14T07:23:50.307Z,43.16
2019-05-14T07:26:19.746Z,43.34
2019-05-14T07:28:49.194Z,42.55
2019-05-14T07:31:18.903Z,40.22
2019-05-14T07:33:49.389Z,39.74
2019-05-14T07:36:19.139Z,40.31
2019-05-14T07:38:49.182Z,40.45
2019-05-14T07:41:19.300Z,40.21
2019-05-14T07:43:48.723Z,39.56
2019-05-14T07:46:19.135Z,39.49
2019-05-14T07:49:04.340Z,39.54
2019-05-14T07:51:24.299Z,39.14
2019-05-14T07:53:57.848Z,39.65
2019-05-14T07:56:29.043Z,39.29
2019-05-14T07:58:58.540Z,38.76
2019-05-14T08:01:35.457Z,38.66
2019-05-14T08:04:10.695Z,38.15
2019-05-14T08:06:39.350Z,37.90
2019-05-14T08:09:09.661Z,38.43
2019-05-14T08:11:38.977Z,38.97
2019-05-14T08:14:09.109Z,38.49
2019-05-14T08:16:38.765Z,37.47
2019-05-14T08:19:19.811Z,37.41
2019-05-14T08:21:38.914Z,37.61
2019-05-14T08:24:08.958Z,38.18
2019-05-14T08:26:38.531Z,36.59
2019-05-14T08:29:09.194Z,37.51
2019-05-14T08:31:38.589Z,36.63
2019-05-14T08:34:09.237Z,36.47
2019-05-14T08:36:38.523Z,36.43
2019-05-14T08:39:08.856Z,36.49
2019-05-14T08:41:38.607Z,36.15
2019-05-14T08:44:08.518Z,36.03
2019-05-14T08:46:38.895Z,35.64
2019-05-14T08:49:08.987Z,35.11
2019-05-14T08:51:38.822Z,35.15
2019-05-14T08:54:08.537Z,33.80
2019-05-14T08:56:38.978Z,33.68
2019-05-14T08:59:08.874Z,33.12
2019-05-14T09:01:38.908Z,32.84
2019-05-14T09:04:08.973Z,32.96
2019-05-14T09:06:38.617Z,33.11
2019-05-14T09:09:09.482Z,32.62
2019-05-14T09:11:45.289Z,32.35
2019-05-14T09:14:11.342Z,32.30
2019-05-14T09:16:46.739Z,32.74
2019-05-14T09:19:12.195Z,32.96
2019-05-14T09:21:41.287Z,32.35
2019-05-14T09:24:10.688Z,32.48
2019-05-14T09:26:39.856Z,31.82
2019-05-14T09:29:19.426Z,31.42
2019-05-14T09:31:40.244Z,30.59
2019-05-14T09:34:09.398Z,30.72
2019-05-14T09:36:39.564Z,31.40
2019-05-14T09:39:12.137Z,30.57
2019-05-14T09:41:40.194Z,30.63
2019-05-14T09:44:09.478Z,30.64
2019-05-14T09:46:38.652Z,32.31
2019-05-14T09:49:08.147Z,31.68
2019-05-14T09:51:38.458Z,31.17
2019-05-14T09:54:08.542Z,30.51
2019-05-14T09:56:39.589Z,31.35
2019-05-14T09:59:09.365Z,31.32
2019-05-14T10:01:38.543Z,31.16
2019-05-14T10:04:11.273Z,30.55
2019-05-14T10:06:40.455Z,30.25
2019-05-14T10:09:09.601Z,30.50
2019-05-14T10:11:39.154Z,29.10
2019-05-14T10:14:08.242Z,29.18
2019-05-14T10:16:38.432Z,29.31
2019-05-14T10:19:08.130Z,29.53
2019-05-14T10:21:38.846Z,29.27
2019-05-14T10:24:09.274Z,29.44
2019-05-14T10:26:39.575Z,29.77
2019-05-14T10:29:08.833Z,29.27
2019-05-14T10:31:39.737Z,29.49
2019-05-14T10:34:10.258Z,28.74
2019-05-14T10:36:39.445Z,28.26
2019-05-14T10:39:09.529Z,28.61
2019-05-14T10:41:39.087Z,28.71
2019-05-14T10:44:09.196Z,28.96
2019-05-14T10:46:38.692Z,28.83
2019-05-14T10:49:19.405Z,29.15
2019-05-14T10:51:39.115Z,29.19
2019-05-14T10:54:21.255Z,28.62
2019-05-14T10:56:39.324Z,30.06
2019-05-14T10:59:09.440Z,27.54
2019-05-14T11:01:39.147Z,28.66
2019-05-14T11:04:08.616Z,28.76
2019-05-14T11:06:38.752Z,28.43
2019-05-14T11:09:09.124Z,28.93
2019-05-14T11:11:39.078Z,28.07
2019-05-14T11:14:08.795Z,28.23
2019-05-14T11:16:41.617Z,27.91
2019-05-14T11:19:09.649Z,27.49
2019-05-14T11:21:39.262Z,26.15
2019-05-14T11:24:09.418Z,26.01
2019-05-14T11:26:39.473Z,26.28
2019-05-14T11:29:08.635Z,26.45
2019-05-14T11:31:39.144Z,25.71
2019-05-14T11:34:08.763Z,25.96
2019-05-14T11:36:38.894Z,24.81
2019-05-14T11:39:11.399Z,24.58
2019-05-14T11:41:40.846Z,24.83
2019-05-14T11:44:09.908Z,25.05
2019-05-14T11:46:47.432Z,24.79
2019-05-14T11:49:10.270Z,24.47
2019-05-14T11:51:59.412Z,24.89
2019-05-14T11:54:10.571Z,25.47
2019-05-14T11:56:41.830Z,24.64
2019-05-14T11:59:11.358Z,24.76
2019-05-14T12:01:40.775Z,24.74
2019-05-14T12:04:10.297Z,24.81
2019-05-14T12:06:39.465Z,24.56
2019-05-14T12:09:12.097Z,24.23
2019-05-14T12:11:42.173Z,24.47
2019-05-14T12:14:11.300Z,24.43
2019-05-14T12:16:40.985Z,23.97
2019-05-14T12:19:12.073Z,24.36
2019-05-14T12:21:57.394Z,23.27
2019-05-14T12:24:14.874Z,22.29
2019-05-14T12:26:44.293Z,22.05
2019-05-14T12:29:15.957Z,22.10
2019-05-14T12:31:45.308Z,21.95
2019-05-14T12:34:18.383Z,22.49
2019-05-14T12:36:53.845Z,23.12
2019-05-14T12:39:24.858Z,23.43
2019-05-14T12:41:54.198Z,23.54
2019-05-14T12:44:23.472Z,23.75
2019-05-14T12:46:52.878Z,23.41
2019-05-14T12:49:21.907Z,24.16
2019-05-14T12:51:51.710Z,24.41
2019-05-14T12:54:21.140Z,23.84
2019-05-14T12:56:50.785Z,23.90
2019-05-14T12:59:20.306Z,23.73
2019-05-14T13:01:54.897Z,23.64
2019-05-14T13:04:24.817Z,23.81
2019-05-14T13:06:54.073Z,23.57
2019-05-14T13:09:23.568Z,22.92
2019-05-14T13:11:52.993Z,21.87
2019-05-14T13:14:22.173Z,20.68
2019-05-14T13:16:54.552Z,19.60
2019-05-14T13:19:22.619Z,19.90
2019-05-14T13:22:08.774Z,20.54
2019-05-14T13:24:23.439Z,20.55
2019-05-14T13:26:54.773Z,20.98
2019-05-14T13:29:24.761Z,21.98
2019-05-14T13:32:01.407Z,22.95
2019-05-14T13:34:34.773Z,23.38
2019-05-14T13:37:07.640Z,23.58
2019-05-14T13:39:39.633Z,23.44
2019-05-14T13:42:11.619Z,21.92
2019-05-14T13:44:51.904Z,21.00
2019-05-14T13:47:21.085Z,20.05
2019-05-14T13:49:50.404Z,18.63
2019-05-14T13:52:20.001Z,17.79
2019-05-14T13:54:49.249Z,17.25
2019-05-14T13:57:19.703Z,16.17
2019-05-14T13:59:49.427Z,15.77
2019-05-14T14:02:19.117Z,15.20
2019-05-14T14:04:49.093Z,16.22
2019-05-14T14:07:19.154Z,18.67
2019-05-14T14:09:49.861Z,18.75
2019-05-14T14:12:19.354Z,18.71
2019-05-14T14:14:49.310Z,18.53
2019-05-14T14:17:18.657Z,19.55
2019-05-14T14:19:48.414Z,18.83
2019-05-14T14:22:19.434Z,17.94
2019-05-14T14:24:48.835Z,16.72
2019-05-14T14:27:19.649Z,16.31
2019-05-14T14:29:49.377Z,15.96
2019-05-14T14:32:19.358Z,17.37
2019-05-14T14:34:49.121Z,17.69
2019-05-14T14:37:19.377Z,18.09
2019-05-14T14:39:48.943Z,20.02
2019-05-14T14:42:20.075Z,19.88
2019-05-14T14:44:49.971Z,18.65
2019-05-14T14:47:19.271Z,16.95
2019-05-14T14:49:51.856Z,17.44
2019-05-14T14:52:20.098Z,17.01
2019-05-14T14:54:49.484Z,16.46
2019-05-14T14:57:20.134Z,15.96
2019-05-14T14:59:49.501Z,16.39
2019-05-14T15:02:19.664Z,16.62
2019-05-14T15:04:50.069Z,16.40
2019-05-14T15:07:19.329Z,18.10
2019-05-14T15:09:48.853Z,18.44
2019-05-14T15:12:19.926Z,17.84
2019-05-14T15:14:49.299Z,17.26
2019-05-14T15:17:18.746Z,15.88
2019-05-14T15:19:49.936Z,15.44
2019-05-14T15:22:20.943Z,15.74
2019-05-14T15:24:50.096Z,17.25
2019-05-14T15:27:19.240Z,17.92
2019-05-14T15:29:48.871Z,19.26
2019-05-14T15:32:19.646Z,20.16
2019-05-14T15:34:50.576Z,21.31
2019-05-14T15:37:20.632Z,20.05
2019-05-14T15:39:50.358Z,19.96
2019-05-14T15:42:19.953Z,20.91
2019-05-14T15:44:55.755Z,21.49
2019-05-14T15:47:20.471Z,22.33
2019-05-14T15:49:49.730Z,22.94
2019-05-14T15:52:19.443Z,22.97
2019-05-14T15:54:50.637Z,23.57
2019-05-14T15:57:19.627Z,23.49
2019-05-14T15:59:48.743Z,23.01
2019-05-14T16:02:21.882Z,22.78
2019-05-14T16:04:51.459Z,23.13
2019-05-14T16:07:21.652Z,22.59
2019-05-14T16:09:52.120Z,21.72
2019-05-14T16:12:39.915Z,21.29
2019-05-14T16:15:10.648Z,21.92
2019-05-14T16:18:02.995Z,22.05
2019-05-14T16:20:12.591Z,22.38
2019-05-14T16:22:41.780Z,22.72
2019-05-14T16:25:19.091Z,23.08
2019-05-14T16:27:48.278Z,23.44
2019-05-14T16:30:19.328Z,24.46
2019-05-14T16:32:48.764Z,25.00
2019-05-14T16:35:21.326Z,24.95
2019-05-14T16:37:48.748Z,24.97
2019-05-14T16:40:19.288Z,25.47
2019-05-14T16:42:48.657Z,25.69
2019-05-14T16:45:18.702Z,25.58
2019-05-14T16:47:48.237Z,25.89
2019-05-14T16:50:18.977Z,25.78
2019-05-14T16:52:49.515Z,26.15
2019-05-14T16:55:26.508Z,25.57
2019-05-14T16:57:49.825Z,24.79
2019-05-14T17:00:18.921Z,24.79
2019-05-14T17:02:48.409Z,24.21
2019-05-14T17:05:17.865Z,24.33
2019-05-14T17:07:48.932Z,23.82
2019-05-14T17:10:18.306Z,23.78
2019-05-14T17:12:55.831Z,24.37
2019-05-14T17:15:18.572Z,24.71
2019-05-14T17:17:48.328Z,25.25
2019-05-14T17:20:19.385Z,25.51
2019-05-14T17:22:48.780Z,25.61
2019-05-14T17:25:26.529Z,25.94
2019-05-14T17:27:49.372Z,25.44
2019-05-14T17:30:18.761Z,25.62
2019-05-14T17:32:49.493Z,24.79
2019-05-14T17:35:19.644Z,24.47
2019-05-14T17:37:49.508Z,24.61
2019-05-14T17:40:20.625Z,24.93
2019-05-14T17:42:50.250Z,24.67
2019-05-14T17:45:19.652Z,24.55
2019-05-14T17:47:49.479Z,24.97
2019-05-14T17:50:19.013Z,25.52
2019-05-14T17:52:55.267Z,25.48
2019-05-14T17:55:19.869Z,25.55
2019-05-14T17:57:57.395Z,25.59
2019-05-14T18:00:23.447Z,25.56
2019-05-14T18:02:53.130Z,25.77
2019-05-14T18:05:22.481Z,25.83
2019-05-14T18:07:51.804Z,26.08
2019-05-14T18:10:21.635Z,26.29
2019-05-14T18:12:51.055Z,26.52
2019-05-14T18:15:20.509Z,26.99
2019-05-14T18:17:50.225Z,27.03
2019-05-14T18:20:19.555Z,26.97
2019-05-14T18:22:48.997Z,27.28
2019-05-14T18:25:18.651Z,27.34
2019-05-14T18:27:49.910Z,27.50
2019-05-14T18:30:19.460Z,27.48
2019-05-14T18:32:49.291Z,27.73
2019-05-14T18:35:20.405Z,28.11
2019-05-14T18:37:49.837Z,28.22
2019-05-14T18:40:19.923Z,28.59
2019-05-14T18:42:50.257Z,28.69
2019-05-14T18:45:20.411Z,28.91
2019-05-14T18:47:51.169Z,28.80
2019-05-14T18:50:20.906Z,29.17
2019-05-14T18:52:52.057Z,29.02
2019-05-14T18:55:30.794Z,29.43
2019-05-14T18:58:08.751Z,29.42
2019-05-14T19:00:38.956Z,29.80
2019-05-14T19:03:08.818Z,29.93
2019-05-14T19:05:38.369Z,29.86
2019-05-14T19:08:07.868Z,29.97
2019-05-14T19:10:39.143Z,30.33
2019-05-14T19:13:08.890Z,30.07
2019-05-14T19:15:38.776Z,30.41
2019-05-14T19:18:09.066Z,30.44
2019-05-14T19:20:39.172Z,30.62
2019-05-14T19:23:08.751Z,30.63
2019-05-14T19:25:39.814Z,30.78
2019-05-14T19:28:09.182Z,30.89
2019-05-14T19:30:38.733Z,30.89
2019-05-14T19:33:08.548Z,31.13
2019-05-14T19:35:39.452Z,31.54
2019-05-14T19:38:09.352Z,31.72
2019-05-14T19:40:39.909Z,31.89
2019-05-14T19:43:09.580Z,32.36
2019-05-14T19:45:39.399Z,32.50
2019-05-14T19:48:08.871Z,32.25
2019-05-14T19:50:38.858Z,32.79
2019-05-14T19:53:09.071Z,32.84
2019-05-14T19:55:39.904Z,32.82
2019-05-14T19:58:09.445Z,33.35
2019-05-14T20:00:39.155Z,33.52
2019-05-14T20:03:08.810Z,33.92
2019-05-14T20:05:39.587Z,34.01
2019-05-14T20:08:11.405Z,34.17
2019-05-14T20:10:41.488Z,34.07
2019-05-14T20:13:12.071Z,34.50
2019-05-14T20:15:49.348Z,34.69
2019-05-14T20:18:18.445Z,34.71
2019-05-14T20:20:49.268Z,34.91
2019-05-14T20:23:18.837Z,34.97
2019-05-14T20:25:48.325Z,35.35
2019-05-14T20:28:19.025Z,35.07
2019-05-14T20:30:49.336Z,35.25
2019-05-14T20:33:19.179Z,34.91
2019-05-14T20:35:48.730Z,35.09
2019-05-14T20:38:18.518Z,35.27
2019-05-14T20:40:48.908Z,35.51
2019-05-14T20:43:18.624Z,35.55
2019-05-14T20:45:48.821Z,35.63
2019-05-14T20:48:18.940Z,35.59
2019-05-14T20:50:48.222Z,35.41
2019-05-14T20:53:18.582Z,35.56
2019-05-14T20:55:47.866Z,35.76
2019-05-14T20:58:19.904Z,36.50
2019-05-14T21:00:49.663Z,35.92
2019-05-14T21:03:18.857Z,36.14
2019-05-14T21:05:49.274Z,36.30
2019-05-14T21:08:18.797Z,36.13
2019-05-14T21:10:49.471Z,36.60
2019-05-14T21:13:18.998Z,36.41
2019-05-14T21:15:48.403Z,36.56
2019-05-14T21:18:19.003Z,36.69
2019-05-14T21:20:48.950Z,36.94
2019-05-14T21:23:18.384Z,36.56
2019-05-14T21:25:48.372Z,36.56
2019-05-14T21:28:17.799Z,36.92
2019-05-14T21:30:48.589Z,36.92
2019-05-14T21:33:17.922Z,37.08
2019-05-14T21:35:48.518Z,37.29
2019-05-14T21:38:19.142Z,37.81
2019-05-14T21:40:50.146Z,37.82
2019-05-14T21:43:19.422Z,37.80
2019-05-14T21:45:49.035Z,37.66
2019-05-14T21:48:19.986Z,38.19
2019-05-14T21:50:49.274Z,37.85
2019-05-14T21:53:19.093Z,37.87
2019-05-14T21:55:48.281Z,38.26
2019-05-14T21:58:19.562Z,38.29
2019-05-14T22:00:51.805Z,38.81
2019-05-14T22:03:21.011Z,38.83
2019-05-14T22:05:51.608Z,38.79
2019-05-14T22:08:20.866Z,38.67
2019-05-14T22:10:50.729Z,38.91
2019-05-14T22:13:20.221Z,38.61
2019-05-14T22:15:49.498Z,39.24
2019-05-14T22:18:20.815Z,39.54
2019-05-14T22:20:49.484Z,39.29
2019-05-14T22:23:21.147Z,39.66
2019-05-14T22:25:49.569Z,39.87
2019-05-14T22:28:19.044Z,39.79
2019-05-14T22:30:48.289Z,39.90
2019-05-14T22:33:19.101Z,39.59
2019-05-14T22:35:49.182Z,40.24
2019-05-14T22:38:20.312Z,39.90
2019-05-14T22:40:49.151Z,39.85
2019-05-14T22:43:18.373Z,40.08
2019-05-14T22:45:48.225Z,39.93
2019-05-14T22:48:18.625Z,40.11
2019-05-14T22:50:48.618Z,39.88
2019-05-14T22:53:18.149Z,40.79
2019-05-14T22:55:50.677Z,40.41
2019-05-14T22:58:25.634Z,40.28
2019-05-14T23:01:12.847Z,40.57
2019-05-14T23:03:22.556Z,40.23
2019-05-14T23:05:51.615Z,40.92
2019-05-14T23:08:20.998Z,41.34
2019-05-14T23:10:50.085Z,40.69
2019-05-14T23:13:19.308Z,40.81
2019-05-14T23:15:49.016Z,40.98
2019-05-14T23:18:18.281Z,40.99
2019-05-14T23:20:49.209Z,41.51
2019-05-14T23:23:18.607Z,41.26
2019-05-14T23:25:47.787Z,41.46
2019-05-14T23:28:19.061Z,41.44
2019-05-14T23:30:48.212Z,41.54
2019-05-14T23:33:19.150Z,41.42
2019-05-14T23:35:48.336Z,41.40
2019-05-14T23:38:19.099Z,41.70
2019-05-14T23:40:49.315Z,41.78
2019-05-14T23:43:18.681Z,42.10
2019-05-14T23:45:48.087Z,42.31
2019-05-14T23:48:18.880Z,42.83
2019-05-14T23:50:48.840Z,43.35
2019-05-14T23:53:18.541Z,43.58
2019-05-14T23:55:48.224Z,43.53
2019-05-14T23:58:20.851Z,43.96
